createdAt,value
2023-04-03T00:01:22.522Z,9.25
2023-04-03T00:03:52.454Z,8.65
2023-04-03T00:06:19.853Z,8.70
2023-04-03T00:08:46.639Z,8.18
2023-04-03T00:11:13.674Z,8.50
2023-04-03T00:13:41.565Z,8.80
2023-04-03T00:16:13.632Z,7.75
2023-04-03T00:18:46.624Z,7.25
2023-04-03T00:21:17.005Z,7.25
2023-04-03T00:23:49.138Z,6.95
2023-04-03T00:26:26.047Z,6.45
2023-04-03T00:28:55.938Z,5.45
2023-04-03T00:31:24.701Z,6.43
2023-04-03T00:34:07.437Z,5.95
2023-04-03T00:36:38.484Z,6.13
2023-04-03T00:39:10.148Z,6.35
2023-04-03T00:41:37.387Z,6.35
2023-04-03T00:44:29.029Z,6.55
2023-04-03T00:46:59.134Z,6.38
2023-04-03T00:49:29.353Z,6.75
2023-04-03T00:51:58.331Z,6.43
2023-04-03T00:54:28.065Z,6.50
2023-04-03T00:57:00.161Z,7.03
2023-04-03T00:59:33.346Z,6.55
2023-04-03T01:02:05.134Z,6.85
2023-04-03T01:04:38.158Z,6.57
2023-04-03T01:07:09.236Z,5.63
2023-04-03T01:09:37.331Z,6.78
2023-04-03T01:12:23.273Z,6.28
2023-04-03T01:14:57.601Z,5.88
2023-04-03T01:17:59.253Z,6.68
2023-04-03T01:20:47.674Z,5.43
2023-04-03T01:23:22.985Z,6.38
2023-04-03T01:25:53.449Z,5.50
2023-04-03T01:28:32.887Z,5.53
2023-04-03T01:31:31.805Z,5.75
2023-04-03T01:33:59.678Z,5.72
2023-04-03T01:36:30.760Z,5.70
2023-04-03T01:39:03.988Z,5.63
2023-04-03T01:41:44.462Z,5.32
2023-04-03T01:44:18.133Z,5.53
2023-04-03T01:46:48.947Z,5.43
2023-04-03T01:49:16.205Z,5.05
2023-04-03T01:51:43.717Z,6.13
2023-04-03T01:54:11.291Z,5.50
2023-04-03T01:56:40.181Z,5.15
2023-04-03T01:59:08.429Z,4.88
2023-04-03T02:01:40.590Z,5.35
2023-04-03T02:04:11.053Z,5.88
2023-04-03T02:06:40.838Z,5.72
2023-04-03T02:09:07.949Z,5.30
2023-04-03T02:11:35.033Z,5.40
2023-04-03T02:14:02.410Z,6.00
2023-04-03T02:16:29.989Z,5.38
2023-04-03T02:18:57.166Z,5.15
2023-04-03T02:21:27.511Z,6.55
2023-04-03T02:23:54.867Z,5.45
2023-04-03T02:26:29.649Z,5.15
2023-04-03T02:28:56.750Z,5.70
2023-04-03T02:31:26.415Z,5.18
2023-04-03T02:33:57.611Z,5.72
2023-04-03T02:36:26.518Z,5.85
2023-04-03T02:38:58.943Z,6.22
2023-04-03T02:41:28.911Z,5.40
2023-04-03T02:43:58.837Z,5.80
2023-04-03T02:46:35.384Z,6.13
2023-04-03T02:49:04.321Z,5.30
2023-04-03T02:51:39.837Z,5.53
2023-04-03T02:54:08.734Z,5.50
2023-04-03T02:56:38.714Z,6.22
2023-04-03T02:59:13.080Z,5.22
2023-04-03T03:01:44.506Z,6.55
2023-04-03T03:04:14.331Z,5.88
2023-04-03T03:06:45.408Z,5.82
2023-04-03T03:09:12.425Z,6.05
2023-04-03T03:11:39.310Z,6.35
2023-04-03T03:14:06.300Z,5.70
2023-04-03T03:16:34.170Z,5.30
2023-04-03T03:19:01.495Z,5.60
2023-04-03T03:21:28.674Z,5.25
2023-04-03T03:24:02.307Z,6.45
2023-04-03T03:26:33.771Z,6.38
2023-04-03T03:29:03.925Z,6.03
2023-04-03T03:31:31.218Z,5.90
2023-04-03T03:33:58.341Z,6.28
2023-04-03T03:36:25.656Z,5.47
2023-04-03T03:38:52.883Z,5.90
2023-04-03T03:41:20.022Z,6.10
2023-04-03T03:43:47.925Z,5.85
2023-04-03T03:46:23.404Z,6.13
2023-04-03T03:48:56.634Z,5.68
2023-04-03T03:51:26.270Z,5.80
2023-04-03T03:53:55.963Z,6.03
2023-04-03T03:56:25.267Z,6.10
2023-04-03T03:58:57.364Z,5.78
2023-04-03T04:01:31.686Z,5.97
2023-04-03T04:03:58.568Z,5.57
2023-04-03T04:06:34.840Z,6.43
2023-04-03T04:09:29.903Z,6.32
2023-04-03T04:21:36.331Z,7.18
2023-04-03T04:24:06.280Z,6.25
2023-04-03T04:26:36.407Z,6.57
2023-04-03T04:29:03.737Z,6.25
2023-04-03T04:31:36.854Z,6.97
2023-04-03T04:34:23.471Z,6.45
2023-04-03T04:37:07.372Z,5.90
2023-04-03T04:39:35.758Z,6.13
2023-04-03T04:42:04.320Z,6.97
2023-04-03T04:44:34.361Z,6.35
2023-04-03T04:47:11.145Z,7.05
2023-04-03T04:49:38.259Z,6.65
2023-04-03T04:52:13.236Z,5.97
2023-04-03T04:54:54.831Z,6.63
2023-04-03T04:57:24.636Z,6.30
2023-04-03T05:00:03.194Z,6.50
2023-04-03T05:03:29.238Z,6.53
2023-04-03T05:06:08.185Z,6.10
2023-04-03T05:08:48.992Z,6.80
2023-04-03T05:11:25.118Z,6.30
2023-04-03T05:13:56.548Z,6.55
2023-04-03T05:16:28.225Z,6.43
2023-04-03T05:19:07.804Z,6.22
2023-04-03T05:21:44.546Z,7.03
2023-04-03T05:24:15.755Z,6.47
2023-04-03T05:26:49.324Z,6.57
2023-04-03T05:29:44.578Z,5.97
2023-04-03T05:32:45.608Z,6.70
2023-04-03T05:35:27.574Z,6.43
2023-04-03T05:38:01.296Z,6.32
2023-04-03T05:40:36.516Z,6.93
2023-04-03T05:43:07.117Z,6.28
2023-04-03T05:45:47.448Z,7.00
2023-04-03T05:48:23.895Z,6.10
2023-04-03T05:51:01.987Z,6.20
2023-04-03T05:53:42.283Z,6.25
2023-04-03T05:56:38.642Z,6.15
2023-04-03T05:59:09.572Z,6.22
2023-04-03T06:01:42.968Z,6.70
2023-04-03T06:04:25.947Z,6.15
2023-04-03T06:07:06.601Z,6.50
2023-04-03T06:09:44.357Z,5.80
2023-04-03T06:12:50.360Z,6.50
2023-04-03T06:15:56.387Z,5.95
2023-04-03T06:18:51.819Z,6.88
2023-04-03T06:21:32.066Z,6.65
2023-04-03T06:24:04.558Z,6.95
2023-04-03T06:26:36.123Z,7.50
2023-04-03T06:29:05.619Z,8.43
2023-04-03T06:31:37.884Z,9.45
2023-04-03T06:34:14.971Z,11.45
2023-04-03T06:36:46.221Z,11.48
2023-04-03T06:39:17.216Z,9.57
2023-04-03T06:41:44.826Z,9.10
2023-04-03T06:44:20.151Z,7.93
2023-04-03T06:46:50.023Z,7.22
2023-04-03T06:49:19.951Z,7.85
2023-04-03T06:51:47.557Z,7.88
2023-04-03T06:54:24.189Z,7.78
2023-04-03T06:56:55.498Z,7.57
2023-04-03T06:59:22.574Z,6.50
2023-04-03T07:02:11.438Z,7.35
2023-04-03T07:04:38.521Z,7.40
2023-04-03T07:07:07.242Z,6.55
2023-04-03T07:09:37.199Z,6.95
2023-04-03T07:12:04.242Z,6.03
2023-04-03T07:14:31.084Z,6.65
2023-04-03T07:16:58.177Z,6.80
2023-04-03T07:19:28.298Z,6.78
2023-04-03T07:21:55.742Z,6.95
2023-04-03T07:24:22.513Z,9.48
2023-04-03T07:26:53.693Z,7.13
2023-04-03T07:29:22.564Z,6.15
2023-04-03T07:31:52.798Z,6.68
2023-04-03T07:34:22.947Z,6.32
2023-04-03T07:37:06.052Z,7.60
2023-04-03T07:39:43.322Z,7.20
2023-04-03T07:42:10.353Z,6.60
2023-04-03T07:44:39.388Z,6.38
2023-04-03T07:47:24.606Z,6.75
2023-04-03T07:49:56.368Z,6.20
2023-04-03T07:53:07.488Z,6.00
2023-04-03T07:55:43.771Z,6.70
2023-04-03T07:58:22.411Z,6.80
2023-04-03T08:00:56.731Z,6.43
2023-04-03T08:18:37.096Z,6.30
2023-04-03T08:25:42.550Z,5.82
2023-04-03T08:28:36.319Z,6.35
2023-04-03T08:31:57.282Z,6.22
2023-04-03T08:34:51.680Z,5.68
2023-04-03T08:37:34.465Z,6.38
2023-04-03T08:40:01.519Z,6.70
2023-04-03T08:42:56.913Z,6.60
2023-04-03T08:45:49.078Z,7.50
2023-04-03T08:48:30.267Z,6.88
2023-04-03T08:51:16.399Z,6.53
2023-04-03T08:53:57.205Z,5.60
2023-04-03T08:56:34.432Z,6.90
2023-04-03T08:59:30.150Z,6.00
2023-04-03T09:02:29.885Z,6.50
2023-04-03T09:05:27.662Z,6.32
2023-04-03T09:09:17.273Z,6.10
2023-04-03T09:12:29.622Z,6.18
2023-04-03T09:15:38.259Z,6.05
2023-04-03T09:18:49.162Z,5.68
2023-04-03T09:21:43.344Z,6.03
2023-04-03T09:25:16.124Z,5.30
2023-04-03T09:30:43.631Z,6.72
2023-04-03T09:33:21.599Z,7.18
2023-04-03T09:38:50.276Z,7.72
2023-04-03T09:41:39.988Z,7.25
2023-04-03T09:44:56.942Z,7.22
2023-04-03T09:47:40.147Z,6.43
2023-04-03T10:01:58.290Z,7.18
2023-04-03T10:04:47.201Z,6.93
2023-04-03T10:08:29.608Z,6.88
2023-04-03T10:11:26.803Z,6.80
2023-04-03T10:14:16.184Z,6.78
2023-04-03T10:19:12.605Z,6.20
2023-04-03T10:21:24.698Z,6.22
2023-04-03T10:27:22.493Z,6.88
2023-04-03T10:30:38.369Z,6.20
2023-04-03T10:40:42.259Z,7.57
2023-04-03T10:44:13.899Z,7.20
2023-04-03T10:47:43.227Z,7.75
2023-04-03T10:51:21.378Z,6.97
2023-04-03T10:54:14.561Z,6.97
2023-04-03T11:00:23.560Z,5.95
2023-04-03T11:03:11.695Z,6.65
2023-04-03T11:06:06.464Z,6.43
2023-04-03T11:09:06.795Z,6.97
2023-04-03T11:11:53.829Z,6.82
2023-04-03T11:15:06.208Z,7.40
2023-04-03T11:18:23.661Z,7.43
2023-04-03T11:22:38.679Z,7.63
2023-04-03T11:31:11.722Z,6.97
2023-04-03T11:33:47.332Z,7.43
2023-04-03T11:36:48.520Z,7.53
2023-04-03T11:39:28.516Z,7.15
2023-04-03T11:42:12.600Z,7.35
2023-04-03T11:45:47.819Z,7.20
2023-04-03T11:48:32.748Z,8.90
2023-04-03T11:51:45.712Z,8.13
2023-04-03T11:59:01.929Z,5.97
2023-04-03T12:02:36.303Z,5.72
2023-04-03T12:05:34.877Z,5.43
2023-04-03T12:09:20.391Z,6.28
2023-04-03T12:11:53.099Z,5.93
2023-04-03T12:14:40.523Z,7.03
2023-04-03T12:17:45.380Z,8.15
2023-04-03T12:20:55.705Z,6.82
2023-04-03T12:27:30.212Z,5.45
2023-04-03T12:34:10.919Z,5.30
2023-04-03T12:36:52.451Z,5.35
2023-04-03T12:39:49.993Z,5.82
2023-04-03T12:43:08.737Z,5.43
2023-04-03T12:46:22.919Z,5.57
2023-04-03T12:48:52.998Z,4.75
2023-04-03T12:51:34.693Z,5.55
2023-04-03T12:54:32.618Z,5.35
2023-04-03T12:57:26.597Z,5.68
2023-04-03T12:59:58.566Z,6.10
2023-04-03T13:02:35.482Z,6.57
2023-04-03T13:05:37.257Z,6.20
2023-04-03T13:08:16.020Z,5.50
2023-04-03T13:10:55.817Z,5.93
2023-04-03T13:13:26.048Z,5.68
2023-04-03T13:15:58.076Z,5.50
2023-04-03T13:18:40.832Z,5.85
2023-04-03T13:21:34.476Z,5.47
2023-04-03T13:24:15.283Z,4.95
2023-04-03T13:26:52.235Z,5.38
2023-04-03T13:29:40.435Z,4.72
2023-04-03T13:32:24.034Z,4.30
2023-04-03T13:35:08.152Z,5.03
2023-04-03T13:38:29.979Z,4.75
2023-04-03T13:41:01.894Z,5.75
2023-04-03T13:43:37.345Z,5.30
2023-04-03T13:46:28.500Z,5.30
2023-04-03T13:49:19.368Z,5.60
2023-04-03T13:51:57.072Z,5.47
2023-04-03T13:54:34.634Z,4.45
2023-04-03T13:57:19.462Z,5.43
2023-04-03T13:59:49.144Z,5.53
2023-04-03T14:02:40.602Z,5.53
2023-04-03T14:05:09.448Z,4.38
2023-04-03T14:07:37.166Z,4.78
2023-04-03T14:11:03.726Z,4.20
2023-04-03T14:13:34.950Z,3.63
2023-04-03T14:16:15.176Z,3.45
2023-04-03T14:19:45.210Z,3.42
2023-04-03T14:22:55.818Z,4.35
2023-04-03T14:25:37.373Z,4.32
2023-04-03T14:28:27.944Z,4.13
2023-04-03T14:31:03.729Z,4.45
2023-04-03T14:33:38.086Z,4.35
2023-04-03T14:37:01.437Z,4.05
2023-04-03T14:40:42.550Z,6.18
2023-04-03T14:43:13.371Z,3.92
2023-04-03T14:45:43.911Z,4.35
2023-04-03T14:48:33.335Z,3.47
2023-04-03T14:51:08.439Z,3.17
2023-04-03T14:53:48.864Z,2.78
2023-04-03T14:56:29.113Z,2.58
2023-04-03T14:59:16.654Z,2.75
2023-04-03T15:01:48.349Z,3.22
2023-04-03T15:04:21.019Z,3.17
2023-04-03T15:06:52.321Z,3.15
2023-04-03T15:09:23.305Z,3.22
2023-04-03T15:11:52.056Z,3.75
2023-04-03T15:14:29.749Z,3.60
2023-04-03T15:17:07.897Z,3.40
2023-04-03T15:19:38.758Z,3.55
2023-04-03T15:22:06.223Z,3.47
2023-04-03T15:24:33.062Z,2.80
2023-04-03T15:27:01.634Z,2.72
2023-04-03T15:29:28.824Z,2.30
2023-04-03T15:31:55.927Z,2.00
2023-04-03T15:34:23.226Z,1.50
2023-04-03T15:36:53.524Z,2.10
2023-04-03T15:39:21.725Z,1.88
2023-04-03T15:41:48.760Z,1.90
2023-04-03T15:44:18.716Z,2.10
2023-04-03T15:46:47.158Z,2.67
2023-04-03T15:49:14.180Z,3.08
2023-04-03T15:51:44.134Z,3.03
2023-04-03T15:54:11.242Z,2.53
2023-04-03T15:56:38.177Z,2.88
2023-04-03T15:59:21.209Z,2.78
2023-04-03T16:01:49.360Z,3.17
2023-04-03T16:04:19.468Z,3.08
2023-04-03T16:06:47.684Z,3.10
2023-04-03T16:09:14.448Z,2.30
2023-04-03T16:11:41.459Z,2.13
2023-04-03T16:14:11.278Z,2.45
2023-04-03T16:16:41.128Z,2.00
2023-04-03T16:19:32.464Z,2.30
2023-04-03T16:22:02.969Z,1.90
2023-04-03T16:24:30.745Z,3.33
2023-04-03T16:26:57.553Z,3.30
2023-04-03T16:29:31.724Z,3.65
2023-04-03T16:32:01.156Z,3.58
2023-04-03T16:34:37.798Z,3.90
2023-04-03T16:37:04.861Z,3.75
2023-04-03T16:39:35.969Z,3.53
2023-04-03T16:42:03.673Z,3.63
2023-04-03T16:44:48.423Z,3.95
2023-04-03T16:47:51.177Z,3.38
2023-04-03T16:50:22.189Z,3.58
2023-04-03T16:52:54.637Z,3.50
2023-04-03T16:55:23.978Z,3.77
2023-04-03T16:57:52.068Z,4.07
2023-04-03T17:00:19.095Z,3.35
2023-04-03T17:02:58.341Z,3.05
2023-04-03T17:05:45.478Z,2.80
2023-04-03T17:08:44.248Z,3.80
2023-04-03T17:14:20.739Z,2.53
2023-04-03T17:17:13.730Z,2.63
2023-04-03T17:20:21.751Z,3.20
2023-04-03T17:22:49.852Z,3.40
2023-04-03T17:25:16.997Z,3.60
2023-04-03T17:27:43.864Z,3.15
2023-04-03T17:30:17.233Z,3.00
2023-04-03T17:32:53.710Z,3.63
2023-04-03T17:35:42.121Z,3.25
2023-04-03T17:38:09.116Z,2.40
2023-04-03T17:40:47.513Z,2.67
2023-04-03T17:43:28.716Z,3.00
2023-04-03T17:46:51.975Z,2.35
2023-04-03T17:49:42.893Z,3.22
2023-04-03T17:52:35.034Z,2.70
2023-04-03T17:58:36.886Z,4.38
2023-04-03T18:01:24.837Z,3.55
2023-04-03T18:04:16.665Z,4.28
2023-04-03T18:07:00.255Z,4.40
2023-04-03T18:09:33.809Z,3.90
2023-04-03T18:12:31.601Z,4.10
2023-04-03T18:19:17.593Z,4.03
2023-04-03T18:21:48.648Z,4.40
2023-04-03T18:24:18.317Z,3.92
2023-04-03T18:26:48.384Z,3.35
2023-04-03T18:29:22.532Z,3.65
2023-04-03T18:32:05.749Z,2.75
2023-04-03T18:34:33.086Z,4.45
2023-04-03T18:37:10.741Z,3.80
2023-04-03T18:39:42.321Z,3.63
2023-04-03T18:42:46.376Z,3.80
2023-04-03T18:45:33.145Z,4.60
2023-04-03T18:48:08.286Z,4.43
2023-04-03T18:50:41.970Z,4.78
2023-04-03T18:53:11.891Z,4.88
2023-04-03T18:55:46.382Z,3.90
2023-04-03T18:58:20.918Z,4.15
2023-04-03T19:01:12.118Z,4.28
2023-04-03T19:03:39.220Z,4.72
2023-04-03T19:06:16.270Z,4.00
2023-04-03T19:08:43.482Z,3.95
2023-04-03T19:11:11.243Z,3.92
2023-04-03T19:13:46.608Z,3.17
2023-04-03T19:16:25.824Z,3.55
2023-04-03T19:18:54.693Z,4.00
2023-04-03T19:21:24.942Z,4.55
2023-04-03T19:23:52.069Z,4.70
2023-04-03T19:26:20.348Z,4.50
2023-04-03T19:28:48.917Z,4.38
2023-04-03T19:31:23.835Z,4.65
2023-04-03T19:34:00.748Z,4.50
2023-04-03T19:36:28.064Z,4.15
2023-04-03T19:39:26.873Z,4.45
2023-04-03T19:42:19.250Z,3.92
2023-04-03T19:44:49.434Z,4.95
2023-04-03T19:47:58.697Z,4.25
2023-04-03T19:50:26.164Z,4.05
2023-04-03T19:53:21.363Z,4.00
2023-04-03T19:56:02.165Z,3.80
2023-04-03T19:58:53.555Z,4.50
2023-04-03T20:01:25.407Z,4.72
2023-04-03T20:03:52.560Z,4.15
2023-04-03T20:06:42.594Z,4.60
2023-04-03T20:12:19.893Z,3.90
2023-04-03T20:14:55.528Z,4.43
2023-04-03T20:17:28.135Z,3.88
2023-04-03T20:20:01.685Z,4.03
2023-04-03T20:22:35.532Z,5.07
2023-04-03T20:25:28.660Z,4.10
2023-04-03T20:28:11.093Z,4.05
2023-04-03T20:30:40.276Z,3.33
2023-04-03T20:33:14.908Z,3.25
2023-04-03T20:35:57.193Z,4.20
2023-04-03T20:38:24.369Z,4.82
2023-04-03T20:41:05.912Z,5.68
2023-04-03T20:44:11.223Z,6.53
2023-04-03T20:46:52.206Z,6.85
2023-04-03T20:55:17.381Z,5.18
2023-04-03T20:57:54.414Z,4.40
2023-04-03T21:00:23.385Z,4.43
2023-04-03T21:02:52.559Z,4.65
2023-04-03T21:05:31.845Z,4.15
2023-04-03T21:08:38.436Z,3.67
2023-04-03T21:11:58.316Z,2.92
2023-04-03T21:15:05.165Z,3.30
2023-04-03T21:17:40.314Z,3.55
2023-04-03T21:20:19.477Z,3.17
2023-04-03T21:22:53.276Z,3.58
2023-04-03T21:25:39.298Z,4.25
2023-04-03T21:28:08.838Z,4.50
2023-04-03T21:30:36.324Z,5.85
2023-04-03T21:33:05.344Z,5.47
2023-04-03T21:35:34.796Z,5.47
2023-04-03T21:38:07.586Z,5.35
2023-04-03T21:40:35.901Z,4.25
2023-04-03T21:43:08.285Z,4.07
2023-04-03T21:45:40.742Z,3.33
2023-04-03T21:48:10.733Z,3.28
2023-04-03T21:50:42.413Z,3.97
2023-04-03T21:53:12.655Z,3.80
2023-04-03T21:55:42.040Z,3.28
2023-04-03T21:58:11.663Z,3.97
2023-04-03T22:00:39.272Z,3.45
2023-04-03T22:03:10.556Z,3.55
2023-04-03T22:05:37.751Z,3.97
2023-04-03T22:08:04.995Z,3.90
2023-04-03T22:10:35.090Z,4.00
2023-04-03T22:13:08.220Z,3.47
2023-04-03T22:15:50.131Z,3.60
2023-04-03T22:18:23.918Z,3.35
2023-04-03T22:20:50.835Z,3.45
2023-04-03T22:23:17.742Z,4.07
2023-04-03T22:25:56.611Z,3.75
2023-04-03T22:28:23.578Z,4.03
2023-04-03T22:30:50.421Z,3.95
2023-04-03T22:33:20.025Z,4.57
2023-04-03T22:36:00.596Z,4.03
2023-04-03T22:38:28.323Z,4.10
2023-04-03T22:40:59.864Z,4.47
2023-04-03T22:43:28.210Z,4.15
2023-04-03T22:45:56.485Z,3.70
2023-04-03T22:48:24.336Z,3.80
2023-04-03T22:50:51.870Z,3.70
2023-04-03T22:53:19.342Z,3.17
2023-04-03T22:56:01.744Z,3.42
2023-04-03T22:58:29.478Z,3.33
2023-04-03T23:01:12.026Z,3.50
2023-04-03T23:03:41.274Z,4.22
2023-04-03T23:06:09.404Z,5.18
2023-04-03T23:08:38.779Z,4.60
2023-04-03T23:11:07.411Z,4.45
2023-04-03T23:13:34.466Z,3.83
2023-04-03T23:16:03.065Z,3.28
2023-04-03T23:18:31.718Z,3.25
2023-04-03T23:21:03.692Z,3.10
2023-04-03T23:23:35.787Z,4.53
2023-04-03T23:26:04.499Z,2.78
2023-04-03T23:28:31.437Z,2.60
2023-04-03T23:31:00.558Z,2.30
2023-04-03T23:33:30.786Z,2.60
2023-04-03T23:35:58.769Z,2.55
2023-04-03T23:38:29.679Z,2.70
2023-04-03T23:41:04.165Z,3.60
2023-04-03T23:43:32.203Z,3.55
2023-04-03T23:45:59.326Z,3.83
2023-04-03T23:48:29.401Z,3.70
2023-04-03T23:51:01.085Z,3.75
2023-04-03T23:53:28.712Z,4.38
2023-04-03T23:55:55.550Z,4.20
2023-04-03T23:58:22.703Z,4.65
